Dades meteomassalio
Diari Summary for Gener 27, 2017 Units:  Metric    English   Both
« Previous Day
Next Day »
Diari Semanal Mensual Anual Personalitzat
  Maxima: Minima: Mijana:
Temperatura: -17.8 °C -14.8 °C -12.9 °C
Rosada: -17.8 °C -16.3 °C -14.4 °C
Humitat: Humidity % 67 % 83 %
Velocitat del vent: 0 km/h 0 km/h 8.4 km/h
Racha vent: 0 km/h - -
Vent:- - SSE
Pressio: 0 hPa 34164.7 hPa -
Pluja: 12.7 mm    
Historical Graphs
 
 
Tabular Data for Gener 27, 2017
Time Temperature Dew Point Pressure Wind Wind Speed Wind Gust Humidity Rainfall Rate (Hourly) solar Conditions
-17.8 °C -17.8 °C 0 hPa Calm     Humidity % 0 mm SolarRadiationWatts/m^2 W/m2 Conditions
00:02 -14.2 °C -15.8 °C 34442.4 hPa ESE 9 km/h   81 % 0 mm 0.0 W/m2 CLR
00:07 -14.2 °C -15.9 °C 34442.4 hPa Calm     81 % 0 mm 0.0 W/m2 CLR
00:12 -14.2 °C -15.9 °C 34428.8 hPa Calm     81 % 0 mm 0.0 W/m2 CLR
00:17 -14.3 °C -16 °C 34428.8 hPa Calm     81 % 0 mm 0.0 W/m2 CLR
00:22 -14.3 °C -16 °C 34428.8 hPa Calm     81 % 0 mm 0.0 W/m2 CLR
00:27 -14.3 °C -15.9 °C 34428.8 hPa ESE 6 km/h 6 km/h 82 % 0 mm 0.0 W/m2 CLR
00:32 -14.2 °C -15.8 °C 34428.8 hPa ESE 10.3 km/h 10.3 km/h 82 % 0 mm 0.0 W/m2 CLR
00:37 -14.1 °C -15.8 °C 34428.8 hPa ESE 9 km/h 9 km/h 81 % 0 mm 0.0 W/m2 CLR
00:42 -14.1 °C -15.8 °C 34428.8 hPa Calm     81 % 0 mm 0.0 W/m2 CLR
00:53 -14.1 °C -15.8 °C 34428.8 hPa SE 11.9 km/h 11.9 km/h 81 % 0 mm 0.0 W/m2 CLR
00:58 -14 °C -15.8 °C 34428.8 hPa ESE 3.1 km/h   80 % 0 mm 0.0 W/m2 CLR
00:59 -14 °C -15.9 °C 34428.8 hPa Calm     79 % 0 mm 0.0 W/m2 CLR
01:01 -14 °C -15.9 °C 34428.8 hPa Calm     79 % 0 mm 0.0 W/m2 CLR
01:03 -14 °C -15.9 °C 34428.8 hPa Calm     79 % 0 mm 0.0 W/m2 CLR
01:08 -14 °C -15.9 °C 34428.8 hPa Calm     79 % 0 mm 0.0 W/m2 CLR
01:13 -14.1 °C -15.9 °C 34428.8 hPa Calm     80 % 0 mm 0.0 W/m2 CLR
01:18 -14.1 °C -15.9 °C 34428.8 hPa Calm     80 % 0 mm 0.0 W/m2 CLR
01:23 -14.2 °C -16 °C 34428.8 hPa Calm     80 % 0 mm 0.0 W/m2 CLR
01:28 -14.2 °C -15.9 °C 34428.8 hPa ESE 10.3 km/h 10.3 km/h 81 % 0 mm 0.0 W/m2 CLR
01:33 -14.2 °C -15.9 °C 34428.8 hPa Calm     80 % 0 mm 0.0 W/m2 CLR
01:38 -14.3 °C -16.1 °C 34428.8 hPa Calm     80 % 0 mm 0.0 W/m2 CLR
01:43 -14.3 °C -15.9 °C 34428.8 hPa Calm     81 % 0 mm 0.0 W/m2 CLR
01:48 -14.4 °C -16.1 °C 34428.8 hPa Calm     81 % 0 mm 0.0 W/m2 CLR
01:53 -14.4 °C -16.1 °C 34428.8 hPa Calm     81 % 0 mm 0.0 W/m2 CLR
01:58 -14.6 °C -16.1 °C 34428.8 hPa Calm     82 % 0 mm 0.0 W/m2 CLR
02:03 -14.6 °C -16.2 °C 34428.8 hPa Calm     82 % 0 mm 0.0 W/m2 CLR
02:08 -14.7 °C -16.3 °C 34428.8 hPa Calm     82 % 0 mm 0.0 W/m2 CLR
02:13 -14.8 °C -16.2 °C 34418.7 hPa Calm     84 % 0 mm 0.0 W/m2 CLR
02:18 -14.7 °C -16.1 °C 34418.7 hPa Calm     84 % 0 mm 0.0 W/m2 CLR
02:23 -14.7 °C -16.2 °C 34418.7 hPa Calm     83 % 0 mm 0.0 W/m2 CLR
02:28 -14.7 °C -16.1 °C 34418.7 hPa Calm     84 % 0 mm 0.0 W/m2 CLR
02:33 -14.7 °C -16.1 °C 34418.7 hPa Calm     84 % 0 mm 0.0 W/m2 CLR
02:38 -14.7 °C -16.1 °C 34418.7 hPa Calm     84 % 0 mm 0.0 W/m2 CLR
02:43 -14.7 °C -16.1 °C 34418.7 hPa Calm     84 % 0 mm 0.0 W/m2 CLR
02:48 -14.6 °C -16 °C 34418.7 hPa Calm     84 % 0 mm 0.0 W/m2 CLR
02:53 -14.6 °C -15.9 °C 34405.1 hPa Calm     84 % 0 mm 0.0 W/m2 CLR
02:58 -14.4 °C -15.9 °C 34405.1 hPa Calm     83 % 0 mm 0.0 W/m2 CLR
03:08 -14.3 °C -15.8 °C 34405.1 hPa Calm     83 % 0 mm 0.0 W/m2 CLR
03:13 -14.3 °C -15.8 °C 34405.1 hPa Calm     83 % 0 mm 0.0 W/m2 CLR
03:18 -14.2 °C -15.7 °C 34395 hPa Calm     83 % 0 mm 0.0 W/m2 CLR
03:23 -14.2 °C -15.7 °C 34395 hPa Calm     83 % 0 mm 0.0 W/m2 CLR
03:28 -14.2 °C -15.6 °C 34395 hPa Calm     84 % 0 mm 0.0 W/m2 CLR
03:38 -13.9 °C -15.4 °C 34395 hPa Calm     83 % 0 mm 0.0 W/m2 CLR
03:43 -13.9 °C -15.4 °C 34395 hPa Calm     83 % 0 mm 0.0 W/m2 CLR
03:48 -13.8 °C -15.3 °C 34384.8 hPa Calm     83 % 0 mm 0.0 W/m2 CLR
03:53 -13.8 °C -15.3 °C 34384.8 hPa Calm     83 % 0 mm 0.0 W/m2 CLR
03:58 -13.7 °C -15.2 °C 34384.8 hPa East 9 km/h 9 km/h 83 % 0 mm 0.0 W/m2 CLR
04:03 -13.6 °C -15.1 °C 34384.8 hPa ESE 6 km/h 6 km/h 83 % 0 mm 0.0 W/m2 CLR
04:08 -13.5 °C -15.1 °C 34384.8 hPa ESE 29.8 km/h 29.8 km/h 83 % 0 mm 0.0 W/m2 CLR
04:14 -13.4 °C -14.9 °C 34371.3 hPa ESE 11.9 km/h 11.9 km/h 83 % 0 mm 0.0 W/m2 CLR
04:19 -13.3 °C -14.9 °C 34371.3 hPa East 3.1 km/h   82 % 0 mm 0.0 W/m2 CLR
04:24 -13.4 °C -14.9 °C 34371.3 hPa Calm     83 % 0 mm 0.0 W/m2 CLR
04:25 -13.3 °C -14.8 °C 34371.3 hPa Calm     83 % 0 mm 0.0 W/m2 CLR
04:30 -13.4 °C -14.9 °C 34371.3 hPa Calm   1 km/h 83 % 0 mm 0.0 W/m2 CLR
04:35 -13.4 °C -14.8 °C 34371.3 hPa Calm     84 % 0 mm 0.0 W/m2 CLR
04:40 -13.4 °C -14.8 °C 34371.3 hPa Calm     84 % 0 mm 0.0 W/m2 CLR
04:45 -13.4 °C -14.8 °C 34371.3 hPa Calm     85 % 0 mm 0.0 W/m2 CLR
04:50 -13.4 °C -14.8 °C 34361.1 hPa Calm   1.3 km/h 85 % 0 mm 0.0 W/m2 CLR
04:55 -13.5 °C -14.7 °C 34361.1 hPa ENE 6 km/h 6 km/h 86 % 0 mm 0.0 W/m2 CLR
05:00 -13.5 °C -14.7 °C 34361.1 hPa Calm     86 % 0 mm 0.0 W/m2 CLR
05:05 -13.6 °C -14.7 °C 34361.1 hPa Calm     87 % 0 mm 0.0 W/m2 CLR
05:10 -13.6 °C -14.7 °C 34361.1 hPa Calm     87 % 0 mm 0.0 W/m2 CLR
05:15 -13.6 °C -14.7 °C 34361.1 hPa Calm     87 % 0 mm 0.0 W/m2 CLR
05:20 -13.6 °C -14.7 °C 34361.1 hPa NE 6 km/h   87 % 0 mm 0.0 W/m2 CLR
05:25 -13.7 °C -14.7 °C 34347.6 hPa NE 11.9 km/h 11.9 km/h 88 % 0 mm 0.0 W/m2 CLR
05:30 -13.7 °C -14.7 °C 34347.6 hPa Calm   5 km/h 88 % 0 mm 0.0 W/m2 CLR
05:35 -13.7 °C -14.7 °C 34347.6 hPa Calm     88 % 0 mm 0.0 W/m2 CLR
05:40 -13.7 °C -14.7 °C 34347.6 hPa Calm     88 % 0 mm 0.0 W/m2 CLR
05:45 -13.5 °C -14.4 °C 34347.6 hPa ESE 29.8 km/h 29.8 km/h 89 % 0 mm 0.0 W/m2 CLR
05:50 -13.3 °C -14.2 °C 34347.6 hPa SE 17.9 km/h 17.9 km/h 89 % 0 mm 0.0 W/m2 CLR
05:55 -13.2 °C -14.3 °C 34347.6 hPa SE 7.7 km/h 7.7 km/h 88 % 0 mm 0.0 W/m2 CLR
06:00 -13.2 °C -14.3 °C 34347.6 hPa ESE 9 km/h 9 km/h 88 % 0 mm 0.0 W/m2 CLR
06:05 -13.2 °C -14.2 °C 34347.6 hPa ESE 10.3 km/h 10.3 km/h 88 % 0 mm 0.0 W/m2 CLR
06:10 -13.2 °C -14.2 °C 34347.6 hPa ESE 6 km/h 6 km/h 88 % 0 mm 0.0 W/m2 CLR
06:15 -13.2 °C -14.2 °C 34347.6 hPa ESE 9 km/h   89 % 0 mm 0.0 W/m2 CLR
06:20 -13.3 °C -14.2 °C 34347.6 hPa ESE 15 km/h 15 km/h 89 % 0 mm 0.0 W/m2 CLR
06:25 -13.3 °C -14.2 °C 34347.6 hPa ESE 15 km/h 15 km/h 90 % 0 mm 0.0 W/m2 CLR
06:30 -13.3 °C -14.2 °C 34347.6 hPa ESE 9 km/h 9 km/h 90 % 7.62 mm 0.0 W/m2 RA
06:35 -13.4 °C -14.2 °C 34347.6 hPa Calm     90 % 7.62 mm 0.0 W/m2
06:40 -13.4 °C -14.2 °C 34347.6 hPa Calm     91 % 7.62 mm 0.0 W/m2 CLR
06:45 -13.4 °C -14.2 °C 34347.6 hPa ESE 6 km/h 6 km/h 91 % 7.62 mm 0.0 W/m2 CLR
06:50 -13.4 °C -14.2 °C 34347.6 hPa Calm     91 % 12.7 mm 0.0 W/m2 RA
06:55 -13.4 °C -14.2 °C 34337.4 hPa Calm     91 % 12.7 mm 0.0 W/m2 CLR
07:00 -13.4 °C -14.1 °C 34337.4 hPa East 9 km/h 9 km/h 92 % 12.7 mm 0.0 W/m2 CLR
07:05 -13.4 °C -14.1 °C 34327.3 hPa Calm     92 % 12.7 mm 0.0 W/m2 CLR
07:10 -13.4 °C -14.1 °C 34327.3 hPa Calm     92 % 12.7 mm 0.0 W/m2 CLR
07:15 -13.4 °C -14.1 °C 34327.3 hPa Calm     92 % 12.7 mm 0.0 W/m2 CLR
07:20 -13.5 °C -14.2 °C 34327.3 hPa Calm     92 % 12.7 mm 0.0 W/m2 CLR
07:25 -13.5 °C -14.2 °C 34313.7 hPa Calm     92 % 12.7 mm 0.0 W/m2 CLR
07:30 -13.5 °C -14.2 °C 34313.7 hPa Calm     92 % 7.62 mm 0.0 W/m2 CLR
07:35 -13.5 °C -14.2 °C 34313.7 hPa Calm     92 % 7.62 mm 0.0 W/m2 CLR
07:40 -13.6 °C -14.2 °C 34313.7 hPa Calm     92 % 7.62 mm 0.0 W/m2 CLR
07:45 -13.6 °C -14.2 °C 34313.7 hPa Calm     92 % 7.62 mm 0.0 W/m2 CLR
07:50 -13.6 °C -14.2 °C 34313.7 hPa Calm     92 % 0 mm 0.0 W/m2 CLR
07:55 -13.5 °C -14.2 °C 34313.7 hPa Calm     92 % 0 mm 0.0 W/m2 CLR
08:00 -13.5 °C -14.2 °C 34313.7 hPa SE 9 km/h 9 km/h 92 % 0 mm 0.0 W/m2 CLR
08:05 -13.4 °C -14.1 °C 34313.7 hPa Calm     92 % 0 mm 0.0 W/m2 OVC
08:10 -13.4 °C -14.1 °C 34313.7 hPa Calm     92 % 0 mm 0.0 W/m2 OVC
08:15 -13.4 °C -14.1 °C 34313.7 hPa Calm     92 % 0 mm 0.0 W/m2 OVC
08:20 -13.4 °C -14.1 °C 34313.7 hPa Calm     92 % 7.62 mm 0.0 W/m2 RA
08:25 -13.4 °C -14.1 °C 34313.7 hPa Calm     92 % 7.62 mm 0.0 W/m2
08:35 -13.3 °C -14 °C 34313.7 hPa Calm     92 % 7.62 mm 9.0 W/m2 BKN
08:40 -13.3 °C -13.9 °C 34303.6 hPa Calm     92 % 7.62 mm 11.0 W/m2 BKN
08:45 -13.3 °C -13.9 °C 34313.7 hPa East 17.9 km/h 17.9 km/h 92 % 7.62 mm 7.0 W/m2 BKN
08:50 -13.2 °C -14 °C 34313.7 hPa ESE 9 km/h 9 km/h 91 % 7.62 mm 14.0 W/m2 BKN
08:55 -13.2 °C -14 °C 34303.6 hPa ESE 9 km/h 9 km/h 91 % 7.62 mm 30.0 W/m2 BKN
09:00 -13.2 °C -14 °C 34303.6 hPa Calm     91 % 7.62 mm 28.0 W/m2 BKN
09:05 -13.2 °C -14 °C 34303.6 hPa Calm     91 % 7.62 mm 25.0 W/m2 BKN
09:10 -13.2 °C -14 °C 34303.6 hPa Calm     91 % 7.62 mm 30.0 W/m2 BKN
09:15 -13.3 °C -14.1 °C 34303.6 hPa SE 10.3 km/h 10.3 km/h 91 % 7.62 mm 39.0 W/m2 BKN
09:20 -13.2 °C -14 °C 34303.6 hPa SE 15 km/h 15 km/h 91 % 0 mm 30.0 W/m2 BKN
09:25 -13.1 °C -13.9 °C 34303.6 hPa SSE 11.9 km/h 11.9 km/h 91 % 0 mm 56.0 W/m2 BKN
09:30 -13.1 °C -13.9 °C 34303.6 hPa Calm     90 % 0 mm 69.0 W/m2 SCT
09:35 -13 °C -13.8 °C 34303.6 hPa SSE 17.9 km/h 17.9 km/h 90 % 0 mm 114.0 W/m2 FEW
09:40 -12.9 °C -13.8 °C 34303.6 hPa SE 9 km/h 9 km/h 89 % 0 mm 74.0 W/m2 CLR
09:45 -12.9 °C -13.8 °C 34293.4 hPa SE 6 km/h 6 km/h 89 % 0 mm 70.0 W/m2 CLR
09:50 -12.9 °C -13.9 °C 34303.6 hPa ESE 9 km/h 9 km/h 89 % 0 mm 69.0 W/m2 FEW
09:55 -12.9 °C -13.8 °C 34303.6 hPa SE 11.9 km/h 11.9 km/h 89 % 0 mm 58.0 W/m2 FEW
10:00 -12.8 °C -13.8 °C 34303.6 hPa SSE 15 km/h 15 km/h 88 % 0 mm 53.0 W/m2 SCT
10:05 -12.7 °C -13.8 °C 34303.6 hPa Calm     87 % 0 mm 56.0 W/m2 SCT
10:10 -12.7 °C -13.9 °C 34303.6 hPa Calm     86 % 0 mm 60.0 W/m2 SCT
10:15 -12.6 °C -13.9 °C 34303.6 hPa Calm     85 % 0 mm 67.0 W/m2 SCT
10:20 -12.6 °C -13.9 °C 34303.6 hPa SE 6 km/h 6 km/h 85 % 0 mm 65.0 W/m2 SCT
10:25 -12.6 °C -14 °C 34303.6 hPa SE 11.9 km/h 11.9 km/h 84 % 0 mm 62.0 W/m2 SCT
10:30 -12.6 °C -14 °C 34303.6 hPa Calm     84 % 0 mm 60.0 W/m2 SCT
10:35 -12.6 °C -14 °C 34303.6 hPa Calm     84 % 0 mm 67.0 W/m2 SCT
10:40 -12.6 °C -14.1 °C 34303.6 hPa SE 9 km/h 9 km/h 83 % 0 mm 79.0 W/m2 FEW
10:46 -12.5 °C -14 °C 34293.4 hPa SSE 20.9 km/h 20.9 km/h 83 % 0 mm 88.0 W/m2 FEW
10:51 -12.4 °C -13.9 °C 34293.4 hPa SE 20.9 km/h 20.9 km/h 83 % 0 mm 74.0 W/m2 FEW
10:56 -12.4 °C -14.1 °C 34293.4 hPa SE 29.8 km/h 29.8 km/h 82 % 0 mm 54.0 W/m2 FEW
11:01 -12.4 °C -14.1 °C 34293.4 hPa SE 15 km/h 15 km/h 82 % 0 mm 53.0 W/m2 SCT
11:06 -12.4 °C -14.1 °C 34293.4 hPa SE 15.6 km/h 15.6 km/h 82 % 0 mm 54.0 W/m2 SCT
11:10 -12.4 °C -14.1 °C 34293.4 hPa SE 20.9 km/h 20.9 km/h 82 % 0 mm 58.0 W/m2 SCT
11:16 -12.4 °C -14.1 °C 34293.4 hPa SSE 26.9 km/h 26.9 km/h 82 % 0 mm 81.0 W/m2 SCT
11:20 -12.3 °C -14 °C 34293.4 hPa SE 23.8 km/h 23.8 km/h 82 % 0 mm 102.0 W/m2 FEW
11:25 -12.3 °C -14 °C 34293.4 hPa SE 15 km/h 15 km/h 81 % 0 mm 84.0 W/m2 CLR
11:30 -12.3 °C -14 °C 34279.9 hPa SE 9 km/h 9 km/h 81 % 0 mm 77.0 W/m2 CLR
11:35 -12.3 °C -14 °C 34279.9 hPa Calm     81 % 0 mm 72.0 W/m2 FEW
11:40 -12.3 °C -14 °C 34293.4 hPa Calm     81 % 0 mm 72.0 W/m2 FEW
11:45 -12.2 °C -13.9 °C 34279.9 hPa Calm     81 % 0 mm 88.0 W/m2 FEW
11:50 -12.2 °C -13.9 °C 34293.4 hPa Calm     81 % 0 mm 172.0 W/m2 CLR
11:55 -12.2 °C -13.9 °C 34279.9 hPa Calm     81 % 0 mm 172.0 W/m2 CLR
12:00 -12.1 °C -13.9 °C 34279.9 hPa Calm     80 % 0 mm 128.0 W/m2 CLR
12:05 -12 °C -13.9 °C 34279.9 hPa Calm     79 % 0 mm 118.0 W/m2 CLR
12:11 -11.9 °C -13.9 °C 34279.9 hPa Calm     79 % 0 mm 88.0 W/m2 CLR
12:16 -11.9 °C -13.8 °C 34269.7 hPa NW 3.1 km/h   79 % 0 mm 77.0 W/m2 CLR
12:21 -11.9 °C -13.8 °C 34269.7 hPa Calm     79 % 0 mm 72.0 W/m2 FEW
12:26 -11.9 °C -13.9 °C 34269.7 hPa ENE 11.9 km/h   78 % 0 mm 93.0 W/m2 FEW
12:31 -11.9 °C -13.9 °C 34269.7 hPa ENE 7.7 km/h 7.7 km/h 78 % 0 mm 93.0 W/m2 CLR
12:36 -11.8 °C -13.8 °C 34269.7 hPa SSE 11.9 km/h   78 % 0 mm 81.0 W/m2 CLR
12:41 -11.7 °C -13.9 °C 34269.7 hPa Calm     77 % 0 mm 72.0 W/m2 FEW
12:46 -11.7 °C -13.9 °C 34269.7 hPa Calm     76 % 0 mm 51.0 W/m2 FEW
12:51 -11.6 °C -14 °C 34269.7 hPa SSE 15.6 km/h 15.6 km/h 75 % 0 mm 44.0 W/m2 SCT
12:56 -11.6 °C -13.9 °C 34256.2 hPa SSE 15 km/h 15 km/h 75 % 0 mm 56.0 W/m2 SCT
13:01 -11.6 °C -13.9 °C 34256.2 hPa South 9 km/h 9 km/h 75 % 0 mm 76.0 W/m2 SCT
13:06 -11.6 °C -13.9 °C 34256.2 hPa South 7.7 km/h 7.7 km/h 75 % 0 mm 88.0 W/m2 FEW
13:11 -11.6 °C -13.9 °C 34246 hPa SSE 9 km/h 9 km/h 75 % 0 mm 95.0 W/m2 FEW
13:16 -11.6 °C -13.8 °C 34246 hPa SE 11.9 km/h 11.9 km/h 76 % 0 mm 113.0 W/m2 CLR
13:21 -11.6 °C -13.8 °C 34235.8 hPa SE 11.9 km/h 11.9 km/h 76 % 0 mm 153.0 W/m2 CLR
13:26 -11.5 °C -13.7 °C 34235.8 hPa ESE 9 km/h 9 km/h 77 % 0 mm 199.0 W/m2 CLR
13:31 -11.5 °C -13.7 °C 34235.8 hPa ESE 20.9 km/h 20.9 km/h 77 % 0 mm 183.0 W/m2 CLR
13:36 -11.4 °C -13.6 °C 34222.3 hPa ESE 17.9 km/h 17.9 km/h 77 % 0 mm 183.0 W/m2 CLR
13:41 -11.4 °C -13.6 °C 34222.3 hPa ESE 17.9 km/h 17.9 km/h 77 % 0 mm 186.0 W/m2 CLR
13:46 -11.4 °C -13.5 °C 34222.3 hPa ESE 9 km/h 9 km/h 78 % 0 mm 207.0 W/m2 CLR
13:51 -11.4 °C -13.6 °C 34222.3 hPa SE 26.9 km/h 26.9 km/h 77 % 0 mm 306.0 W/m2 CLR
13:56 -11.4 °C -13.5 °C 34222.3 hPa SE 11.9 km/h 11.9 km/h 78 % 0 mm 236.0 W/m2 CLR
14:01 -11.5 °C -13.4 °C 34222.3 hPa ESE 15.6 km/h 15.6 km/h 79 % 0 mm 230.0 W/m2 CLR
14:06 -11.6 °C -13.5 °C 34222.3 hPa ESE 15.6 km/h 15.6 km/h 79 % 0 mm 225.0 W/m2 CLR
14:11 -11.6 °C -13.4 °C 34212.1 hPa ESE 17.9 km/h 17.9 km/h 80 % 0 mm 234.0 W/m2 CLR
14:16 -11.6 °C -13.4 °C 34212.1 hPa ESE 20.9 km/h 20.9 km/h 81 % 0 mm 241.0 W/m2 CLR
14:21 -11.6 °C -13.4 °C 34198.6 hPa SE 29.8 km/h 29.8 km/h 81 % 0 mm 225.0 W/m2 CLR
14:26 -11.6 °C -13.3 °C 34198.6 hPa ESE 20.9 km/h 20.9 km/h 81 % 0 mm 301.0 W/m2 CLR
14:31 -11.5 °C -13.1 °C 34198.6 hPa ESE 15 km/h 15 km/h 82 % 0 mm 352.0 W/m2 CLR
14:36 -11.4 °C -13.2 °C 34188.4 hPa ESE 15 km/h 15 km/h 81 % 0 mm 355.0 W/m2 CLR
14:41 -11.3 °C -13.1 °C 34188.4 hPa ESE 15 km/h 15 km/h 81 % 0 mm 336.0 W/m2 CLR
14:46 -11.3 °C -13.2 °C 34188.4 hPa ESE 20.9 km/h 20.9 km/h 80 % 0 mm 272.0 W/m2 CLR
14:51 -11.3 °C -13.2 °C 34188.4 hPa SE 15 km/h 15 km/h 80 % 0 mm 334.0 W/m2 CLR
14:56 -11.3 °C -13.1 °C 34188.4 hPa ESE 26.9 km/h 26.9 km/h 80 % 0 mm 301.0 W/m2 CLR
15:01 -11.3 °C -13.2 °C 34188.4 hPa ESE 23.8 km/h 23.8 km/h 80 % 0 mm 413.0 W/m2 CLR
15:06 -11.1 °C -12.9 °C 34178.3 hPa ESE 20.9 km/h 20.9 km/h 80 % 0 mm 325.0 W/m2 CLR
15:11 -11.2 °C -13.2 °C 34178.3 hPa ESE 17.9 km/h 17.9 km/h 79 % 0 mm 301.0 W/m2 CLR
15:16 -11.1 °C -13.1 °C 34178.3 hPa ESE 17.9 km/h 17.9 km/h 79 % 0 mm 237.0 W/m2 CLR
15:21 -11.1 °C -13.3 °C 34178.3 hPa SE 20.9 km/h 20.9 km/h 77 % 0 mm 218.0 W/m2 CLR
15:26 -11.1 °C -13.2 °C 34178.3 hPa ESE 20.9 km/h 20.9 km/h 78 % 0 mm 227.0 W/m2 CLR
15:31 -11.1 °C -13.3 °C 34178.3 hPa ESE 17.9 km/h 17.9 km/h 77 % 0 mm 229.0 W/m2 CLR
15:36 -11.1 °C -13.2 °C 34178.3 hPa ESE 10.3 km/h 10.3 km/h 78 % 0 mm 278.0 W/m2 CLR
15:41 -11.1 °C -13.1 °C 34178.3 hPa East 9 km/h   79 % 0 mm 262.0 W/m2 CLR
15:46 -11 °C -13 °C 34178.3 hPa ESE 11.9 km/h 11.9 km/h 79 % 0 mm 262.0 W/m2 CLR
15:51 -10.9 °C -13.1 °C 34178.3 hPa East 11.9 km/h 11.9 km/h 77 % 0 mm 241.0 W/m2 CLR
15:56 -10.9 °C -13.2 °C 34178.3 hPa Calm     76 % 0 mm 221.0 W/m2 CLR
16:01 -10.8 °C -13.1 °C 34178.3 hPa Calm     76 % 0 mm 251.0 W/m2 CLR
16:06 -10.7 °C -12.9 °C 34178.3 hPa East 3.1 km/h 3.1 km/h 77 % 0 mm 134.0 W/m2 CLR
16:16 -10.8 °C -12.8 °C 34178.3 hPa Calm     78 % 0 mm 250.0 W/m2 CLR
16:21 -10.8 °C -12.8 °C 34178.3 hPa Calm     78 % 0 mm 185.0 W/m2 CLR
16:26 -10.8 °C -12.9 °C 34178.3 hPa Calm     77 % 0 mm 116.0 W/m2 CLR
16:31 -10.8 °C -13.1 °C 34178.3 hPa Calm     76 % 0 mm 90.0 W/m2 CLR
16:36 -10.8 °C -13.1 °C 34178.3 hPa Calm     76 % 0 mm 72.0 W/m2 CLR
16:41 -10.8 °C -13.8 °C 34178.3 hPa SE 15 km/h 15 km/h 70 % 0 mm 62.0 W/m2 FEW
16:46 -10.8 °C -14 °C 34178.3 hPa SSE 15 km/h 15 km/h 68 % 0 mm 54.0 W/m2 SCT
16:51 -10.8 °C -14.1 °C 34178.3 hPa SSE 18.2 km/h 18.2 km/h 67 % 0 mm 54.0 W/m2 SCT
16:56 -10.8 °C -14.1 °C 34178.3 hPa SSE 9 km/h 9 km/h 67 % 0 mm 111.0 W/m2 SCT
17:01 -10.7 °C -14.1 °C 34178.3 hPa SSE 17.9 km/h 17.9 km/h 67 % 0 mm 127.0 W/m2 FEW
17:06 -10.8 °C -14.1 °C 34178.3 hPa SSE 12.9 km/h 12.9 km/h 67 % 0 mm 93.0 W/m2 CLR
17:11 -10.8 °C -14 °C 34178.3 hPa SSE 18.2 km/h 18.2 km/h 68 % 0 mm 67.0 W/m2 FEW
17:16 -10.9 °C -14.1 °C 34178.3 hPa SSE 15 km/h 15 km/h 68 % 0 mm 63.0 W/m2 SCT
17:22 -10.9 °C -14.1 °C 34164.7 hPa SSE 15 km/h 15 km/h 68 % 0 mm 60.0 W/m2 SCT
17:26 -11 °C -14.2 °C 34178.3 hPa SSE 31.1 km/h 31.1 km/h 68 % 0 mm 49.0 W/m2 SCT
17:32 -11 °C -14.2 °C 34178.3 hPa SSE 18.2 km/h 18.2 km/h 68 % 0 mm 42.0 W/m2 BKN
17:37 -11.1 °C -14.2 °C 34178.3 hPa SSE 12.9 km/h 12.9 km/h 69 % 0 mm 33.0 W/m2 BKN
17:47 -11.2 °C -14.3 °C 34178.3 hPa SSE 11.9 km/h 12.7 km/h 69 % 0 mm 23.0 W/m2 BKN
17:52 -11.3 °C -14.2 °C 34178.3 hPa SSE 20.9 km/h 20.9 km/h 70 % 0 mm 18.0 W/m2 BKN
17:57 -11.3 °C -14.2 °C 34178.3 hPa SSE 9 km/h 9 km/h 71 % 0 mm 12.0 W/m2 BKN
18:02 -11.4 °C -14.3 °C 34178.3 hPa SE 9 km/h 9 km/h 71 % 0 mm 7.0 W/m2 BKN
18:07 -11.6 °C -14.2 °C 34188.4 hPa SE 15.6 km/h 15.6 km/h 73 % 0 mm 0.0 W/m2 OVC
18:12 -11.6 °C -14.1 °C 34178.3 hPa SSE 17.9 km/h 17.9 km/h 74 % 0 mm 0.0 W/m2 OVC
18:17 -11.7 °C -14.1 °C 34178.3 hPa SSE 20.9 km/h 20.9 km/h 74 % 0 mm 0.0 W/m2 OVC
18:22 -11.7 °C -14.1 °C 34178.3 hPa SE 20.9 km/h 20.9 km/h 75 % 0 mm 0.0 W/m2 CLR
18:27 -11.8 °C -14.1 °C 34188.4 hPa SE 9 km/h 9.7 km/h 75 % 0 mm 0.0 W/m2 CLR
18:32 -11.8 °C -14.1 °C 34188.4 hPa SSE 11.9 km/h 11.9 km/h 76 % 0 mm 0.0 W/m2 CLR
18:37 -11.9 °C -14.2 °C 34188.4 hPa SSE 9 km/h 9 km/h 76 % 0 mm 0.0 W/m2 CLR
18:42 -11.9 °C -14.2 °C 34188.4 hPa SE 23.8 km/h 23.8 km/h 76 % 0 mm 0.0 W/m2 CLR
18:47 -12.1 °C -14.2 °C 34188.4 hPa SE 12.9 km/h 12.9 km/h 77 % 0 mm 0.0 W/m2 CLR
18:52 -12.2 °C -14.2 °C 34198.6 hPa SE 15 km/h 15 km/h 78 % 0 mm 0.0 W/m2 CLR
18:57 -12.2 °C -14.2 °C 34198.6 hPa SE 11.9 km/h 11.9 km/h 79 % 0 mm 0.0 W/m2 CLR
19:02 -12.3 °C -14.2 °C 34198.6 hPa SE 15.6 km/h 15.6 km/h 79 % 0 mm 0.0 W/m2 CLR
19:07 -12.3 °C -14.1 °C 34198.6 hPa SE 17.9 km/h 17.9 km/h 80 % 0 mm 0.0 W/m2 CLR
19:12 -12.3 °C -14.2 °C 34198.6 hPa SE 17.9 km/h 17.9 km/h 80 % 0 mm 0.0 W/m2 CLR
19:17 -12.4 °C -14.2 °C 34198.6 hPa SE 11.9 km/h 11.9 km/h 80 % 0 mm 0.0 W/m2 CLR
19:22 -12.4 °C -14.2 °C 34198.6 hPa Calm     80 % 0 mm 0.0 W/m2 CLR
19:27 -12.4 °C -14.2 °C 34198.6 hPa Calm     81 % 0 mm 0.0 W/m2 CLR
19:32 -12.6 °C -14.3 °C 34212.1 hPa Calm     81 % 0 mm 0.0 W/m2 CLR
19:37 -12.6 °C -14.3 °C 34212.1 hPa Calm     81 % 0 mm 0.0 W/m2 CLR
19:42 -12.7 °C -14.4 °C 34212.1 hPa Calm     81 % 0 mm 0.0 W/m2 CLR
19:47 -12.9 °C -14.5 °C 34212.1 hPa Calm     82 % 0 mm 0.0 W/m2 CLR
19:52 -13 °C -14.4 °C 34212.1 hPa Calm     84 % 0 mm 0.0 W/m2 CLR
19:57 -13.1 °C -14.5 °C 34212.1 hPa Calm     84 % 0 mm 0.0 W/m2 CLR
20:02 -13.1 °C -14.5 °C 34212.1 hPa Calm     84 % 0 mm 0.0 W/m2 CLR
20:07 -13.1 °C -14.4 °C 34212.1 hPa Calm     85 % 0 mm 0.0 W/m2 CLR
20:12 -13.3 °C -14.7 °C 34212.1 hPa Calm     84 % 0 mm 0.0 W/m2 CLR
20:17 -13.4 °C -14.8 °C 34212.1 hPa Calm     85 % 0 mm 0.0 W/m2 CLR
20:22 -13.6 °C -14.9 °C 34222.3 hPa Calm     85 % 0 mm 0.0 W/m2 CLR
20:27 -13.6 °C -14.8 °C 34222.3 hPa Calm     86 % 0 mm 0.0 W/m2 CLR
20:32 -13.7 °C -14.8 °C 34222.3 hPa Calm     87 % 0 mm 0.0 W/m2 CLR
20:37 -13.9 °C -15.1 °C 34222.3 hPa Calm     86 % 0 mm 0.0 W/m2 CLR
20:42 -14.1 °C -15.2 °C 34222.3 hPa Calm     86 % 0 mm 0.0 W/m2 CLR
20:47 -14.1 °C -15.2 °C 34222.3 hPa Calm     87 % 0 mm 0.0 W/m2 CLR
20:52 -14.3 °C -15.3 °C 34222.3 hPa Calm     88 % 0 mm 0.0 W/m2 CLR
20:57 -14.3 °C -15.2 °C 34222.3 hPa Calm     89 % 0 mm 0.0 W/m2 CLR
21:02 -14.3 °C -15.3 °C 34222.3 hPa Calm     89 % 0 mm 0.0 W/m2 CLR
21:07 -14.4 °C -15.3 °C 34222.3 hPa Calm     89 % 0 mm 0.0 W/m2 CLR
21:12 -14.4 °C -15.2 °C 34222.3 hPa Calm     90 % 0 mm 0.0 W/m2 CLR
21:17 -14.4 °C -15.3 °C 34235.8 hPa Calm     89 % 0 mm 0.0 W/m2 CLR
21:22 -14.6 °C -15.5 °C 34235.8 hPa Calm     89 % 0 mm 0.0 W/m2 CLR
21:27 -14.6 °C -15.4 °C 34235.8 hPa Calm     90 % 0 mm 0.0 W/m2 CLR
21:32 -14.6 °C -15.4 °C 34235.8 hPa Calm     90 % 0 mm 0.0 W/m2 CLR
21:37 -14.6 °C -15.4 °C 34235.8 hPa WNW 9 km/h 9 km/h 90 % 0 mm 0.0 W/m2 CLR
21:42 -14.1 °C -14.7 °C 34235.8 hPa West 15 km/h 15 km/h 92 % 0 mm 0.0 W/m2 CLR
21:47 -14 °C -14.8 °C 34235.8 hPa Calm     90 % 0 mm 0.0 W/m2 CLR
21:52 -14 °C -14.8 °C 34235.8 hPa WSW 7.7 km/h 7.7 km/h 90 % 0 mm 0.0 W/m2 CLR
21:57 -14 °C -14.8 °C 34235.8 hPa Calm     90 % 0 mm 0.0 W/m2 CLR
22:02 -13.9 °C -14.8 °C 34246 hPa Calm     90 % 0 mm 0.0 W/m2 CLR
22:07 -13.8 °C -14.7 °C 34246 hPa Calm     90 % 0 mm 0.0 W/m2 CLR
22:12 -13.9 °C -14.8 °C 34246 hPa Calm     89 % 0 mm 0.0 W/m2 CLR
22:17 -13.8 °C -14.8 °C 34246 hPa Calm     89 % 0 mm 0.0 W/m2 CLR
22:22 -13.8 °C -14.8 °C 34246 hPa Calm     89 % 0 mm 0.0 W/m2 CLR
22:27 -13.8 °C -14.8 °C 34246 hPa Calm     89 % 0 mm 0.0 W/m2 CLR
22:32 -13.8 °C -14.8 °C 34256.2 hPa Calm     89 % 0 mm 0.0 W/m2 CLR
22:37 -13.8 °C -14.8 °C 34256.2 hPa Calm     89 % 0 mm 0.0 W/m2 CLR
22:42 -13.8 °C -14.8 °C 34246 hPa Calm     89 % 0 mm 0.0 W/m2 CLR
22:47 -13.5 °C -14.5 °C 34246 hPa West 23.8 km/h 23.8 km/h 89 % 0 mm 0.0 W/m2 CLR
22:52 -13.2 °C -14.4 °C 34246 hPa West 26.9 km/h 26.9 km/h 86 % 0 mm 0.0 W/m2 CLR
22:57 -13.1 °C -14.5 °C 34246 hPa West 29.8 km/h 29.8 km/h 84 % 0 mm 0.0 W/m2 CLR
23:02 -13 °C -14.6 °C 34256.2 hPa WNW 20.9 km/h 20.9 km/h 82 % 0 mm 0.0 W/m2 CLR
23:07 -13 °C -14.7 °C 34256.2 hPa WNW 35.7 km/h 35.7 km/h 81 % 0 mm 0.0 W/m2 CLR
23:12 -12.9 °C -14.8 °C 34256.2 hPa West 44.7 km/h 44.7 km/h 80 % 0 mm 0.0 W/m2 CLR
23:18 -12.9 °C -14.8 °C 34256.2 hPa West 35.7 km/h 35.7 km/h 80 % 0 mm 0.0 W/m2 CLR
23:23 -12.9 °C -14.6 °C 34256.2 hPa West 35.7 km/h 35.7 km/h 82 % 0 mm 0.0 W/m2 CLR
23:28 -13 °C -14.5 °C 34256.2 hPa West 36.2 km/h 36.2 km/h 83 % 0 mm 0.0 W/m2 CLR
23:33 -13 °C -14.3 °C 34256.2 hPa WNW 35.7 km/h 35.7 km/h 85 % 0 mm 0.0 W/m2 CLR
23:38 -13.1 °C -14.3 °C 34256.2 hPa WNW 36.2 km/h 36.2 km/h 86 % 0 mm 0.0 W/m2 CLR
23:43 -13.1 °C -14.3 °C 34256.2 hPa WNW 35.7 km/h 35.7 km/h 86 % 0 mm 0.0 W/m2 CLR
23:49 -13.1 °C -14.3 °C 34256.2 hPa WNW 38.8 km/h 38.8 km/h 86 % 0 mm 0.0 W/m2 CLR
23:54 -13.2 °C -14.4 °C 34269.7 hPa WNW 38.8 km/h 38.8 km/h 86 % 0 mm 0.0 W/m2 CLR
23:55 -13.2 °C -14.4 °C 34256.2 hPa WNW 44.7 km/h 44.7 km/h 86 % 0 mm 0.0 W/m2 CLR
23:58 -13.2 °C -14.4 °C 34256.2 hPa WNW 41.7 km/h 41.7 km/h 86 % 0 mm 0.0 W/m2 CLR
Lo Temps de Massalio
Compliments of Weather Underground - 1.25 mb